createdAt,value
2022-11-05T00:00:21.647Z,14.66
2022-11-05T00:01:21.880Z,14.66
2022-11-05T00:02:22.007Z,14.65
2022-11-05T00:03:22.235Z,14.65
2022-11-05T00:04:25.574Z,14.66
2022-11-05T00:05:23.522Z,14.67
2022-11-05T00:06:22.694Z,14.66
2022-11-05T00:07:22.904Z,14.65
2022-11-05T00:08:23.052Z,14.65
2022-11-05T00:09:23.230Z,14.65
2022-11-05T00:10:23.415Z,14.63
2022-11-05T00:11:23.620Z,14.63
2022-11-05T00:12:23.759Z,14.62
2022-11-05T00:13:23.941Z,14.65
2022-11-05T00:14:24.121Z,14.62
2022-11-05T00:15:24.304Z,14.59
2022-11-05T00:16:24.502Z,14.59
2022-11-05T00:17:24.692Z,14.60
2022-11-05T00:18:24.833Z,14.60
2022-11-05T00:19:25.026Z,14.59
2022-11-05T00:20:25.223Z,14.62
2022-11-05T00:21:25.402Z,14.62
2022-11-05T00:22:25.574Z,14.57
2022-11-05T00:23:25.764Z,14.57
2022-11-05T00:24:25.966Z,14.60
2022-11-05T00:25:26.105Z,14.57
2022-11-05T00:26:26.284Z,14.54
2022-11-05T00:27:26.479Z,14.57
2022-11-05T00:28:26.656Z,14.59
2022-11-05T00:29:26.857Z,14.52
2022-11-05T00:30:27.028Z,14.59
2022-11-05T00:31:27.220Z,14.57
2022-11-05T00:32:27.396Z,14.54
2022-11-05T00:33:27.575Z,14.51
2022-11-05T00:34:27.787Z,14.54
2022-11-05T00:35:27.931Z,14.54
2022-11-05T00:36:28.112Z,14.52
2022-11-05T00:37:28.299Z,14.52
2022-11-05T00:38:28.476Z,14.52
2022-11-05T00:39:28.683Z,14.52
2022-11-05T00:40:28.823Z,14.54
2022-11-05T00:41:29.008Z,14.52
2022-11-05T00:42:29.182Z,14.50
2022-11-05T00:43:29.359Z,14.54
2022-11-05T00:44:29.562Z,14.52
2022-11-05T00:45:29.760Z,14.50
2022-11-05T00:46:29.892Z,14.52
2022-11-05T00:47:30.080Z,14.50
2022-11-05T00:48:30.262Z,14.51
2022-11-05T00:49:30.495Z,14.51
2022-11-05T00:50:30.631Z,14.52
2022-11-05T00:51:30.810Z,14.51
2022-11-05T00:52:30.981Z,14.51
2022-11-05T00:53:31.170Z,14.48
2022-11-05T00:54:31.369Z,14.50
2022-11-05T00:55:31.512Z,14.48
2022-11-05T00:56:31.693Z,14.47
2022-11-05T00:57:31.880Z,14.42
2022-11-05T00:58:32.063Z,14.48
2022-11-05T00:59:32.274Z,14.45
2022-11-05T01:00:32.413Z,14.47
2022-11-05T01:01:32.659Z,14.45
2022-11-05T01:02:32.943Z,14.44
2022-11-05T01:03:32.935Z,14.48
2022-11-05T01:04:33.144Z,14.47
2022-11-05T01:05:33.286Z,14.42
2022-11-05T01:06:33.466Z,14.44
2022-11-05T01:07:33.655Z,14.44
2022-11-05T01:08:33.836Z,14.42
2022-11-05T01:09:34.041Z,14.41
2022-11-05T01:10:34.207Z,14.42
2022-11-05T01:11:34.380Z,14.42
2022-11-05T01:12:34.548Z,14.42
2022-11-05T01:13:34.738Z,14.42
2022-11-05T01:14:34.936Z,14.41
2022-11-05T01:15:35.110Z,14.41
2022-11-05T01:16:35.287Z,14.42
2022-11-05T01:17:35.470Z,14.40
2022-11-05T01:18:35.657Z,14.41
2022-11-05T01:19:35.858Z,14.40
2022-11-05T01:20:36.000Z,14.40
2022-11-05T01:21:36.180Z,14.42
2022-11-05T01:22:36.359Z,14.40
2022-11-05T01:23:36.540Z,14.40
2022-11-05T01:24:36.731Z,14.36
2022-11-05T01:25:36.948Z,14.40
2022-11-05T01:26:37.090Z,14.32
2022-11-05T01:27:37.261Z,14.34
2022-11-05T01:28:37.508Z,14.32
2022-11-05T01:29:37.602Z,14.34
2022-11-05T01:30:37.802Z,14.34
2022-11-05T01:31:37.941Z,14.33
2022-11-05T01:32:38.129Z,14.34
2022-11-05T01:33:38.311Z,14.32
2022-11-05T01:34:38.494Z,14.33
2022-11-05T01:35:38.683Z,14.29
2022-11-05T01:36:38.861Z,14.30
2022-11-05T01:37:39.044Z,14.29
2022-11-05T01:38:39.223Z,14.32
2022-11-05T01:39:39.452Z,14.33
2022-11-05T01:40:39.587Z,14.27
2022-11-05T01:41:39.768Z,14.27
2022-11-05T01:42:39.929Z,14.32
2022-11-05T01:43:40.116Z,14.30
2022-11-05T01:44:40.309Z,14.27
2022-11-05T01:45:40.485Z,14.27
2022-11-05T01:46:40.669Z,14.26
2022-11-05T01:47:40.851Z,14.27
2022-11-05T01:48:41.047Z,14.26
2022-11-05T01:49:41.228Z,14.26
2022-11-05T01:50:41.400Z,14.26
2022-11-05T01:51:41.577Z,14.23
2022-11-05T01:52:41.749Z,14.25
2022-11-05T01:53:41.936Z,14.22
2022-11-05T01:54:42.117Z,14.22
2022-11-05T01:55:42.299Z,14.23
2022-11-05T01:56:42.500Z,14.16
2022-11-05T01:57:42.648Z,14.17
2022-11-05T01:58:42.829Z,14.17
2022-11-05T01:59:43.014Z,14.17
2022-11-05T02:00:43.210Z,14.13
2022-11-05T02:01:43.543Z,14.17
2022-11-05T02:02:43.668Z,14.17
2022-11-05T02:03:43.736Z,14.14
2022-11-05T02:04:43.915Z,14.17
2022-11-05T02:05:44.119Z,14.13
2022-11-05T02:06:44.262Z,14.10
2022-11-05T02:07:44.461Z,14.10
2022-11-05T02:08:44.643Z,14.10
2022-11-05T02:09:44.822Z,14.14
2022-11-05T02:10:45.015Z,14.11
2022-11-05T02:11:45.191Z,14.10
2022-11-05T02:12:45.373Z,14.10
2022-11-05T02:13:45.556Z,14.08
2022-11-05T02:14:45.732Z,14.10
2022-11-05T02:15:45.920Z,14.10
2022-11-05T02:16:46.119Z,14.06
2022-11-05T02:17:46.294Z,14.06
2022-11-05T02:18:46.465Z,14.06
2022-11-05T02:19:46.661Z,14.07
2022-11-05T02:20:51.862Z,14.04
2022-11-05T02:21:48.011Z,14.04
2022-11-05T02:22:47.166Z,14.01
2022-11-05T02:23:47.356Z,14.03
2022-11-05T02:24:47.540Z,14.03
2022-11-05T02:25:47.725Z,13.99
2022-11-05T02:26:47.900Z,13.99
2022-11-05T02:27:48.088Z,14.01
2022-11-05T02:28:48.224Z,14.01
2022-11-05T02:29:48.412Z,13.95
2022-11-05T02:30:48.594Z,13.99
2022-11-05T02:31:48.776Z,13.99
2022-11-05T02:32:48.968Z,13.98
2022-11-05T02:33:49.124Z,13.96
2022-11-05T02:34:49.300Z,13.98
2022-11-05T02:35:49.487Z,13.98
2022-11-05T02:36:49.669Z,13.98
2022-11-05T02:37:49.866Z,13.98
2022-11-05T02:38:50.049Z,13.96
2022-11-05T02:39:50.230Z,13.95
2022-11-05T02:40:50.409Z,13.95
2022-11-05T02:41:50.595Z,13.96
2022-11-05T02:42:50.790Z,13.96
2022-11-05T02:43:50.972Z,13.96
2022-11-05T02:44:51.142Z,13.95
2022-11-05T02:45:51.343Z,13.96
2022-11-05T02:46:51.583Z,13.92
2022-11-05T02:47:51.694Z,13.93
2022-11-05T02:48:51.873Z,13.92
2022-11-05T02:49:52.052Z,13.91
2022-11-05T02:50:52.233Z,13.95
2022-11-05T02:51:52.424Z,13.92
2022-11-05T02:52:52.616Z,13.91
2022-11-05T02:53:52.804Z,13.88
2022-11-05T02:54:52.974Z,13.92
2022-11-05T02:55:53.175Z,13.91
2022-11-05T02:56:53.347Z,13.89
2022-11-05T02:57:53.540Z,13.91
2022-11-05T02:58:53.709Z,13.93
2022-11-05T02:59:53.905Z,13.92
2022-11-05T03:00:54.062Z,13.92
2022-11-05T03:01:54.340Z,13.88
2022-11-05T03:02:54.445Z,13.89
2022-11-05T03:03:54.587Z,13.88
2022-11-05T03:04:54.716Z,13.85
2022-11-05T03:05:54.947Z,13.89
2022-11-05T03:06:55.088Z,13.91
2022-11-05T03:07:55.287Z,13.86
2022-11-05T03:08:55.476Z,13.89
2022-11-05T03:09:55.653Z,13.85
2022-11-05T03:10:55.841Z,13.86
2022-11-05T03:11:56.023Z,13.85
2022-11-05T03:12:56.180Z,13.86
2022-11-05T03:13:56.380Z,13.84
2022-11-05T03:14:56.561Z,13.85
2022-11-05T03:15:56.740Z,13.85
2022-11-05T03:16:56.928Z,13.86
2022-11-05T03:17:57.109Z,13.84
2022-11-05T03:18:57.312Z,13.84
2022-11-05T03:19:57.451Z,13.84
2022-11-05T03:20:57.643Z,13.86
2022-11-05T03:21:57.800Z,13.80
2022-11-05T03:22:57.992Z,13.81
2022-11-05T03:23:58.203Z,13.80
2022-11-05T03:24:58.345Z,13.84
2022-11-05T03:25:58.530Z,13.76
2022-11-05T03:26:58.715Z,13.80
2022-11-05T03:27:58.902Z,13.80
2022-11-05T03:28:59.093Z,13.77
2022-11-05T03:29:59.255Z,13.74
2022-11-05T03:30:59.445Z,13.76
2022-11-05T03:31:59.623Z,13.76
2022-11-05T03:32:59.805Z,13.80
2022-11-05T03:33:59.996Z,13.78
2022-11-05T03:35:00.166Z,13.76
2022-11-05T03:36:00.364Z,13.77
2022-11-05T03:37:00.537Z,13.74
2022-11-05T03:38:00.720Z,13.74
2022-11-05T03:39:00.896Z,13.77
2022-11-05T03:40:01.101Z,13.71
2022-11-05T03:41:01.278Z,13.76
2022-11-05T03:42:01.456Z,13.74
2022-11-05T03:43:01.646Z,13.71
2022-11-05T03:44:01.829Z,13.71
2022-11-05T03:45:02.040Z,13.71
2022-11-05T03:46:02.178Z,13.68
2022-11-05T03:47:02.358Z,13.70
2022-11-05T03:48:02.550Z,13.74
2022-11-05T03:49:02.794Z,13.73
2022-11-05T03:50:02.921Z,13.68
2022-11-05T03:51:03.089Z,13.67
2022-11-05T03:52:03.279Z,13.67
2022-11-05T03:53:03.468Z,13.71
2022-11-05T03:54:03.643Z,13.70
2022-11-05T03:55:03.862Z,13.67
2022-11-05T03:56:04.000Z,13.67
2022-11-05T03:57:04.200Z,13.67
2022-11-05T03:58:04.361Z,13.64
2022-11-05T03:59:04.547Z,13.68
2022-11-05T04:00:04.962Z,13.62
2022-11-05T04:01:04.922Z,13.68
2022-11-05T04:02:05.268Z,13.67
2022-11-05T04:03:05.295Z,13.66
2022-11-05T04:04:05.427Z,13.64
2022-11-05T04:05:05.627Z,13.64
2022-11-05T04:06:05.794Z,13.64
2022-11-05T04:07:05.973Z,13.62
2022-11-05T04:08:11.388Z,13.62
2022-11-05T04:09:07.324Z,13.62
2022-11-05T04:10:06.499Z,13.62
2022-11-05T04:11:06.694Z,13.59
2022-11-05T04:12:06.842Z,13.58
2022-11-05T04:13:07.038Z,13.62
2022-11-05T04:14:07.187Z,13.60
2022-11-05T04:15:07.366Z,13.62
2022-11-05T04:16:07.573Z,13.59
2022-11-05T04:17:07.710Z,13.56
2022-11-05T04:18:07.896Z,13.55
2022-11-05T04:19:08.076Z,13.59
2022-11-05T04:20:08.267Z,13.59
2022-11-05T04:21:08.461Z,13.56
2022-11-05T04:22:08.636Z,13.56
2022-11-05T04:23:09.087Z,13.56
2022-11-05T04:24:09.000Z,13.56
2022-11-05T04:25:09.207Z,13.55
2022-11-05T04:26:09.390Z,13.52
2022-11-05T04:27:09.562Z,13.53
2022-11-05T04:28:09.748Z,13.52
2022-11-05T04:29:09.929Z,13.55
2022-11-05T04:30:10.118Z,13.51
2022-11-05T04:31:10.327Z,13.49
2022-11-05T04:32:10.465Z,13.52
2022-11-05T04:33:11.073Z,13.49
2022-11-05T04:34:10.810Z,13.49
2022-11-05T04:35:11.005Z,13.49
2022-11-05T04:36:11.191Z,13.46
2022-11-05T04:37:11.380Z,13.48
2022-11-05T04:38:11.552Z,13.48
2022-11-05T04:39:11.744Z,13.46
2022-11-05T04:40:11.913Z,13.49
2022-11-05T04:41:12.116Z,13.48
2022-11-05T04:42:12.304Z,13.48
2022-11-05T04:43:15.033Z,13.44
2022-11-05T04:44:12.653Z,13.43
2022-11-05T04:45:12.842Z,13.43
2022-11-05T04:46:13.025Z,13.44
2022-11-05T04:47:13.223Z,13.44
2022-11-05T04:48:13.372Z,13.44
2022-11-05T04:49:13.548Z,13.44
2022-11-05T04:50:13.724Z,13.44
2022-11-05T04:51:13.915Z,13.44
2022-11-05T04:52:14.104Z,13.43
2022-11-05T04:53:14.395Z,13.41
2022-11-05T04:54:14.435Z,13.44
2022-11-05T04:55:14.666Z,13.41
2022-11-05T04:56:14.804Z,13.41
2022-11-05T04:57:14.991Z,13.40
2022-11-05T04:58:15.164Z,13.38
2022-11-05T04:59:15.349Z,13.37
2022-11-05T05:00:15.527Z,13.37
2022-11-05T05:01:15.935Z,13.37
2022-11-05T05:02:15.977Z,13.35
2022-11-05T05:03:16.065Z,13.38
2022-11-05T05:04:16.244Z,13.35
2022-11-05T05:05:16.428Z,13.35
2022-11-05T05:06:16.608Z,13.34
2022-11-05T05:07:16.801Z,13.34
2022-11-05T05:08:16.978Z,13.35
2022-11-05T05:09:17.164Z,13.33
2022-11-05T05:10:17.340Z,13.34
2022-11-05T05:11:17.545Z,13.31
2022-11-05T05:12:17.719Z,13.33
2022-11-05T05:13:17.910Z,13.34
2022-11-05T05:14:18.058Z,13.34
2022-11-05T05:15:18.237Z,13.31
2022-11-05T05:16:18.416Z,13.31
2022-11-05T05:17:18.602Z,13.30
2022-11-05T05:18:18.798Z,13.33
2022-11-05T05:19:18.977Z,13.31
2022-11-05T05:20:19.152Z,13.30
2022-11-05T05:21:19.333Z,13.34
2022-11-05T05:22:19.520Z,13.35
2022-11-05T05:23:19.723Z,13.30
2022-11-05T05:24:19.869Z,13.30
2022-11-05T05:25:20.043Z,13.28
2022-11-05T05:26:20.225Z,13.27
2022-11-05T05:27:20.413Z,13.31
2022-11-05T05:28:20.595Z,13.27
2022-11-05T05:29:20.765Z,13.30
2022-11-05T05:30:20.957Z,13.27
2022-11-05T05:31:21.138Z,13.25
2022-11-05T05:32:21.317Z,13.25
2022-11-05T05:33:21.515Z,13.25
2022-11-05T05:34:21.674Z,13.23
2022-11-05T05:35:21.851Z,13.22
2022-11-05T05:36:22.005Z,13.18
2022-11-05T05:37:22.188Z,13.25
2022-11-05T05:38:22.377Z,13.18
2022-11-05T05:39:22.528Z,13.22
2022-11-05T05:40:22.699Z,13.19
2022-11-05T05:41:22.899Z,13.18
2022-11-05T05:42:23.037Z,13.19
2022-11-05T05:43:23.239Z,13.20
2022-11-05T05:44:23.410Z,13.22
2022-11-05T05:45:23.606Z,13.20
2022-11-05T05:46:23.781Z,13.19
2022-11-05T05:47:23.962Z,13.18
2022-11-05T05:48:24.150Z,13.19
2022-11-05T05:49:24.324Z,13.16
2022-11-05T05:50:24.480Z,13.15
2022-11-05T05:51:24.661Z,13.12
2022-11-05T05:52:24.850Z,13.09
2022-11-05T05:53:25.051Z,13.13
2022-11-05T05:54:29.270Z,13.09
2022-11-05T05:55:26.380Z,13.13
2022-11-05T05:56:25.549Z,13.12
2022-11-05T05:57:25.726Z,13.12
2022-11-05T05:58:25.924Z,13.09
2022-11-05T05:59:26.072Z,13.11
2022-11-05T06:00:26.244Z,13.09
2022-11-05T06:01:26.517Z,13.07
2022-11-05T06:02:26.819Z,13.12
2022-11-05T06:03:26.832Z,13.05
2022-11-05T06:04:26.963Z,13.13
2022-11-05T06:05:27.147Z,13.09
2022-11-05T06:06:27.308Z,13.09
2022-11-05T06:07:27.495Z,13.07
2022-11-05T06:08:27.918Z,13.07
2022-11-05T06:09:27.842Z,13.07
2022-11-05T06:10:28.038Z,13.04
2022-11-05T06:11:28.186Z,13.01
2022-11-05T06:12:28.356Z,13.04
2022-11-05T06:13:28.595Z,13.04
2022-11-05T06:14:28.689Z,13.01
2022-11-05T06:15:33.164Z,13.05
2022-11-05T06:16:30.047Z,13.04
2022-11-05T06:17:29.208Z,13.01
2022-11-05T06:18:29.407Z,13.05
2022-11-05T06:19:29.577Z,13.03
2022-11-05T06:20:29.759Z,13.04
2022-11-05T06:21:29.952Z,12.98
2022-11-05T06:22:30.138Z,13.00
2022-11-05T06:23:30.334Z,13.01
2022-11-05T06:24:30.489Z,13.07
2022-11-05T06:25:30.658Z,13.07
2022-11-05T06:26:30.811Z,13.11
2022-11-05T06:27:30.973Z,13.13
2022-11-05T06:28:31.162Z,13.18
2022-11-05T06:29:31.322Z,13.19
2022-11-05T06:30:31.487Z,13.22
2022-11-05T06:31:31.656Z,13.31
2022-11-05T06:32:31.806Z,13.37
2022-11-05T06:33:31.980Z,13.35
2022-11-05T06:34:32.131Z,13.40
2022-11-05T06:35:32.291Z,13.46
2022-11-05T06:36:32.453Z,13.52
2022-11-05T06:37:32.621Z,13.51
2022-11-05T06:38:32.791Z,13.59
2022-11-05T06:39:32.952Z,13.58
2022-11-05T06:40:33.141Z,13.68
2022-11-05T06:41:41.466Z,13.71
2022-11-05T06:42:34.482Z,13.78
2022-11-05T06:43:33.687Z,13.77
2022-11-05T06:44:33.851Z,13.85
2022-11-05T06:45:34.024Z,13.88
2022-11-05T06:46:34.184Z,13.93
2022-11-05T06:47:34.361Z,13.95
2022-11-05T06:48:34.532Z,13.99
2022-11-05T06:49:34.715Z,13.99
2022-11-05T06:50:34.914Z,14.04
2022-11-05T06:51:35.054Z,14.07
2022-11-05T06:52:39.964Z,14.07
2022-11-05T06:53:36.417Z,14.14
2022-11-05T06:54:35.578Z,14.17
2022-11-05T06:55:35.758Z,14.23
2022-11-05T06:56:35.944Z,14.25
2022-11-05T06:57:36.127Z,14.30
2022-11-05T06:58:36.316Z,14.30
2022-11-05T06:59:36.495Z,14.36
2022-11-05T07:00:36.725Z,14.37
2022-11-05T07:01:37.050Z,14.41
2022-11-05T07:02:37.028Z,14.42
2022-11-05T07:03:37.208Z,14.42
2022-11-05T07:04:37.370Z,14.47
2022-11-05T07:05:37.538Z,14.52
2022-11-05T07:06:37.703Z,14.51
2022-11-05T07:07:37.881Z,14.57
2022-11-05T07:08:38.087Z,14.60
2022-11-05T07:09:38.244Z,14.55
2022-11-05T07:10:38.393Z,14.60
2022-11-05T07:11:38.580Z,14.60
2022-11-05T07:12:38.773Z,14.62
2022-11-05T07:13:38.931Z,14.65
2022-11-05T07:14:39.137Z,14.62
2022-11-05T07:15:39.306Z,14.63
2022-11-05T07:16:39.489Z,14.62
2022-11-05T07:17:39.666Z,14.59
2022-11-05T07:18:39.822Z,14.60
2022-11-05T07:19:39.998Z,14.59
2022-11-05T07:20:40.203Z,14.55
2022-11-05T07:21:40.363Z,14.55
2022-11-05T07:22:40.565Z,14.54
2022-11-05T07:23:40.717Z,14.57
2022-11-05T07:24:40.904Z,14.57
2022-11-05T07:25:41.075Z,14.62
2022-11-05T07:26:41.226Z,14.60
2022-11-05T07:27:41.421Z,14.59
2022-11-05T07:28:41.579Z,14.63
2022-11-05T07:29:41.780Z,14.63
2022-11-05T07:30:41.953Z,14.62
2022-11-05T07:31:42.136Z,14.62
2022-11-05T07:32:42.291Z,14.69
2022-11-05T07:33:42.477Z,14.67
2022-11-05T07:34:42.668Z,14.70
2022-11-05T07:35:42.841Z,14.73
2022-11-05T07:36:43.008Z,14.72
2022-11-05T07:37:43.207Z,14.82
2022-11-05T07:38:43.388Z,14.81
2022-11-05T07:39:43.608Z,14.84
2022-11-05T07:40:43.749Z,14.92
2022-11-05T07:41:43.928Z,15.06
2022-11-05T07:42:44.089Z,15.12
2022-11-05T07:43:44.259Z,15.20
2022-11-05T07:44:44.445Z,15.20
2022-11-05T07:45:44.631Z,15.17
2022-11-05T07:46:44.793Z,15.17
2022-11-05T07:47:44.961Z,15.07
2022-11-05T07:48:45.123Z,15.09
2022-11-05T07:49:45.340Z,15.10
2022-11-05T07:50:45.471Z,15.07
2022-11-05T07:51:45.661Z,15.07
2022-11-05T07:52:45.832Z,15.06
2022-11-05T07:53:46.012Z,15.05
2022-11-05T07:54:46.196Z,15.09
2022-11-05T07:55:46.372Z,15.17
2022-11-05T07:56:46.541Z,15.28
2022-11-05T07:57:46.748Z,15.49
2022-11-05T07:58:46.911Z,15.71
2022-11-05T07:59:47.093Z,15.91
2022-11-05T08:00:47.343Z,15.96
2022-11-05T08:01:47.609Z,15.96
2022-11-05T08:02:47.825Z,16.04
2022-11-05T08:03:47.952Z,16.05
2022-11-05T08:04:47.960Z,16.02
2022-11-05T08:05:48.164Z,16.05
2022-11-05T08:06:48.288Z,16.09
2022-11-05T08:07:48.486Z,16.13
2022-11-05T08:08:48.661Z,16.16
2022-11-05T08:09:48.821Z,16.21
2022-11-05T08:10:48.985Z,16.29
2022-11-05T08:11:52.829Z,16.36
2022-11-05T08:12:49.349Z,16.44
2022-11-05T08:13:49.537Z,16.51
2022-11-05T08:14:49.697Z,16.57
2022-11-05T08:15:49.879Z,16.60
2022-11-05T08:16:50.038Z,16.68
2022-11-05T08:17:50.209Z,16.78
2022-11-05T08:18:50.367Z,16.87
2022-11-05T08:19:50.560Z,16.97
2022-11-05T08:20:50.740Z,17.10
2022-11-05T08:21:50.911Z,17.16
2022-11-05T08:22:51.068Z,17.20
2022-11-05T08:23:51.260Z,17.23
2022-11-05T08:24:51.434Z,17.17
2022-11-05T08:25:51.610Z,17.21
2022-11-05T08:26:51.762Z,17.21
2022-11-05T08:27:51.945Z,17.25
2022-11-05T08:28:52.112Z,17.32
2022-11-05T08:29:52.305Z,17.39
2022-11-05T08:30:52.463Z,17.50
2022-11-05T08:31:52.627Z,17.61
2022-11-05T08:32:52.783Z,17.68
2022-11-05T08:33:54.388Z,17.75
2022-11-05T08:34:53.119Z,17.80
2022-11-05T08:35:53.287Z,17.89
2022-11-05T08:36:53.448Z,17.94
2022-11-05T08:37:53.615Z,17.95
2022-11-05T08:38:53.818Z,17.87
2022-11-05T08:39:53.955Z,17.85
2022-11-05T08:40:54.118Z,17.76
2022-11-05T08:41:54.285Z,17.71
2022-11-05T08:42:54.446Z,17.71
2022-11-05T08:43:54.757Z,17.67
2022-11-05T08:44:54.788Z,17.68
2022-11-05T08:45:54.960Z,17.70
2022-11-05T08:46:55.127Z,17.68
2022-11-05T08:47:55.289Z,17.68
2022-11-05T08:48:55.450Z,17.70
2022-11-05T08:49:55.618Z,17.71
2022-11-05T08:50:55.803Z,17.68
2022-11-05T08:51:55.939Z,17.68
2022-11-05T08:52:56.109Z,17.68
2022-11-05T08:53:56.272Z,17.64
2022-11-05T08:54:56.440Z,17.60
2022-11-05T08:55:56.609Z,17.57
2022-11-05T08:56:56.779Z,17.57
2022-11-05T08:57:56.941Z,17.60
2022-11-05T08:58:57.122Z,17.58
2022-11-05T08:59:57.281Z,17.61
2022-11-05T09:01:03.416Z,17.64
2022-11-05T09:01:58.780Z,17.65
2022-11-05T09:02:57.793Z,17.64
2022-11-05T09:03:57.958Z,17.65
2022-11-05T09:04:58.142Z,17.62
2022-11-05T09:05:58.375Z,17.58
2022-11-05T09:06:58.511Z,17.53
2022-11-05T09:08:01.283Z,17.53
2022-11-05T09:08:58.859Z,17.47
2022-11-05T09:09:59.017Z,17.47
2022-11-05T09:10:59.193Z,17.53
2022-11-05T09:12:12.356Z,17.50
2022-11-05T09:13:00.525Z,17.49
2022-11-05T09:13:59.694Z,17.52
2022-11-05T09:14:59.845Z,17.62
2022-11-05T09:16:00.056Z,17.67
2022-11-05T09:17:00.217Z,17.76
2022-11-05T09:18:00.384Z,17.86
2022-11-05T09:19:00.547Z,17.94
2022-11-05T09:20:00.727Z,18.01
2022-11-05T09:21:00.902Z,18.07
2022-11-05T09:22:01.119Z,18.17
2022-11-05T09:23:01.241Z,18.34
2022-11-05T09:24:01.420Z,18.41
2022-11-05T09:25:01.579Z,18.51
2022-11-05T09:26:01.779Z,18.53
2022-11-05T09:27:01.952Z,18.58
2022-11-05T09:28:02.104Z,18.58
2022-11-05T09:29:02.274Z,18.61
2022-11-05T09:30:02.448Z,18.63
2022-11-05T09:31:02.638Z,18.64
2022-11-05T09:32:02.812Z,18.63
2022-11-05T09:33:02.981Z,18.69
2022-11-05T09:34:03.149Z,18.69
2022-11-05T09:35:03.311Z,18.71
2022-11-05T09:36:03.512Z,18.72
2022-11-05T09:37:03.662Z,18.71
2022-11-05T09:38:03.832Z,18.73
2022-11-05T09:39:04.002Z,18.69
2022-11-05T09:40:04.171Z,18.66
2022-11-05T09:41:04.385Z,18.68
2022-11-05T09:42:04.538Z,18.68
2022-11-05T09:43:04.706Z,18.73
2022-11-05T09:44:04.902Z,18.78
2022-11-05T09:45:05.059Z,18.82
2022-11-05T09:46:05.240Z,18.91
2022-11-05T09:47:05.390Z,18.98
2022-11-05T09:48:05.544Z,19.06
2022-11-05T09:49:05.737Z,19.12
2022-11-05T09:50:05.896Z,19.18
2022-11-05T09:51:06.170Z,19.26
2022-11-05T09:52:06.257Z,19.31
2022-11-05T09:53:06.422Z,19.33
2022-11-05T09:54:06.617Z,19.46
2022-11-05T09:55:06.777Z,19.53
2022-11-05T09:56:06.958Z,19.59
2022-11-05T09:57:07.119Z,19.71
2022-11-05T09:58:07.282Z,19.74
2022-11-05T09:59:07.439Z,19.82
2022-11-05T10:00:07.600Z,19.85
2022-11-05T10:01:07.834Z,19.98
2022-11-05T10:02:08.085Z,20.01
2022-11-05T10:03:08.384Z,20.09
2022-11-05T10:04:08.324Z,20.23
2022-11-05T10:05:10.172Z,20.30
2022-11-05T10:06:08.687Z,20.41
2022-11-05T10:07:08.850Z,20.49
2022-11-05T10:08:09.023Z,20.64
2022-11-05T10:09:09.303Z,20.69
2022-11-05T10:10:09.381Z,20.78
2022-11-05T10:11:09.547Z,20.88
2022-11-05T10:12:09.706Z,21.01
2022-11-05T10:13:10.083Z,21.18
2022-11-05T10:14:10.024Z,21.35
2022-11-05T10:15:10.204Z,21.49
2022-11-05T10:16:10.364Z,21.68
2022-11-05T10:17:10.529Z,21.84
2022-11-05T10:18:10.734Z,21.97
2022-11-05T10:19:10.846Z,22.09
2022-11-05T10:20:11.071Z,22.24
2022-11-05T10:21:11.187Z,22.34
2022-11-05T10:22:11.367Z,22.49
2022-11-05T10:23:11.801Z,22.60
2022-11-05T10:24:11.701Z,22.68
2022-11-05T10:25:11.868Z,22.77
2022-11-05T10:26:12.037Z,22.82
2022-11-05T10:27:12.208Z,22.92
2022-11-05T10:28:12.379Z,22.99
2022-11-05T10:29:12.549Z,23.12
2022-11-05T10:30:12.710Z,23.24
2022-11-05T10:31:12.870Z,23.35
2022-11-05T10:32:13.041Z,23.42
2022-11-05T10:33:13.548Z,23.54
2022-11-05T10:34:13.382Z,23.63
2022-11-05T10:35:13.542Z,23.71
2022-11-05T10:36:13.714Z,23.74
2022-11-05T10:37:13.871Z,23.81
2022-11-05T10:38:14.054Z,23.90
2022-11-05T10:39:14.216Z,23.98
2022-11-05T10:40:14.383Z,24.09
2022-11-05T10:41:14.544Z,24.21
2022-11-05T10:42:14.714Z,24.34
2022-11-05T10:43:15.009Z,24.50
2022-11-05T10:44:18.786Z,24.65
2022-11-05T10:45:15.235Z,24.76
2022-11-05T10:46:15.404Z,24.91
2022-11-05T10:47:15.561Z,25.03
2022-11-05T10:48:15.747Z,25.21
2022-11-05T10:49:15.897Z,25.30
2022-11-05T10:50:16.066Z,25.43
2022-11-05T10:51:16.218Z,25.55
2022-11-05T10:52:16.419Z,25.69
2022-11-05T10:53:16.618Z,25.88
2022-11-05T10:54:16.781Z,25.98
2022-11-05T10:55:16.940Z,26.06
2022-11-05T10:56:17.101Z,26.23
2022-11-05T10:57:17.261Z,26.28
2022-11-05T10:58:17.444Z,26.40
2022-11-05T10:59:17.623Z,26.48
2022-11-05T11:00:17.775Z,26.58
2022-11-05T11:01:18.072Z,26.67
2022-11-05T11:02:18.159Z,26.77
2022-11-05T11:03:18.309Z,26.88
2022-11-05T11:04:18.495Z,26.87
2022-11-05T11:05:18.654Z,26.76
2022-11-05T11:06:18.926Z,26.65
2022-11-05T11:07:18.994Z,26.61
2022-11-05T11:08:19.177Z,26.58
2022-11-05T11:09:19.327Z,26.64
2022-11-05T11:10:19.526Z,26.70
2022-11-05T11:11:19.684Z,26.85
2022-11-05T11:12:19.846Z,27.00
2022-11-05T11:13:20.027Z,27.08
2022-11-05T11:14:20.187Z,27.23
2022-11-05T11:15:20.354Z,27.35
2022-11-05T11:16:20.508Z,27.42
2022-11-05T11:17:20.678Z,27.54
2022-11-05T11:18:20.848Z,27.51
2022-11-05T11:19:21.025Z,27.49
2022-11-05T11:20:21.189Z,27.52
2022-11-05T11:21:21.340Z,27.54
2022-11-05T11:22:21.508Z,27.70
2022-11-05T11:23:21.682Z,27.74
2022-11-05T11:24:21.869Z,27.79
2022-11-05T11:25:22.022Z,27.89
2022-11-05T11:26:22.181Z,27.95
2022-11-05T11:27:22.343Z,27.86
2022-11-05T11:28:22.519Z,27.91
2022-11-05T11:29:22.674Z,27.95
2022-11-05T11:30:22.844Z,28.01
2022-11-05T11:31:23.009Z,28.10
2022-11-05T11:32:23.175Z,28.15
2022-11-05T11:33:23.345Z,28.22
2022-11-05T11:34:23.515Z,28.30
2022-11-05T11:35:23.686Z,28.42
2022-11-05T11:36:23.846Z,28.46
2022-11-05T11:37:24.017Z,28.56
2022-11-05T11:38:24.218Z,28.61
2022-11-05T11:39:24.340Z,28.60
2022-11-05T11:40:24.507Z,28.57
2022-11-05T11:41:24.699Z,28.56
2022-11-05T11:42:24.850Z,28.60
2022-11-05T11:43:25.030Z,28.64
2022-11-05T11:44:25.190Z,28.67
2022-11-05T11:45:25.365Z,28.67
2022-11-05T11:46:25.516Z,28.63
2022-11-05T11:47:25.706Z,28.48
2022-11-05T11:48:25.875Z,28.37
2022-11-05T11:49:26.042Z,28.21
2022-11-05T11:50:26.196Z,28.10
2022-11-05T11:51:26.399Z,28.00
2022-11-05T11:52:26.543Z,27.88
2022-11-05T11:53:26.782Z,27.81
2022-11-05T11:54:29.147Z,27.70
2022-11-05T11:55:27.064Z,27.60
2022-11-05T11:56:27.224Z,27.49
2022-11-05T11:57:27.419Z,27.42
2022-11-05T11:58:27.590Z,27.36
2022-11-05T11:59:53.822Z,27.25
2022-11-05T12:00:28.900Z,27.17
2022-11-05T12:01:28.132Z,27.12
2022-11-05T12:02:28.287Z,27.02
2022-11-05T12:03:28.478Z,26.95
2022-11-05T12:04:28.618Z,26.85
2022-11-05T12:05:28.781Z,26.82
2022-11-05T12:06:28.936Z,26.80
2022-11-05T12:07:29.131Z,26.76
2022-11-05T12:08:29.303Z,26.72
2022-11-05T12:09:29.470Z,26.65
2022-11-05T12:10:29.624Z,26.70
2022-11-05T12:11:29.819Z,26.65
2022-11-05T12:12:29.991Z,26.67
2022-11-05T12:13:30.167Z,26.69
2022-11-05T12:14:30.301Z,26.72
2022-11-05T12:15:30.499Z,26.72
2022-11-05T12:16:30.693Z,26.79
2022-11-05T12:17:30.862Z,26.77
2022-11-05T12:18:31.023Z,26.73
2022-11-05T12:19:31.215Z,26.74
2022-11-05T12:20:31.394Z,26.73
2022-11-05T12:21:51.594Z,26.69
2022-11-05T12:22:32.769Z,26.65
2022-11-05T12:23:31.955Z,26.60
2022-11-05T12:24:32.106Z,26.55
2022-11-05T12:25:32.308Z,26.45
2022-11-05T12:26:32.477Z,26.39
2022-11-05T12:27:32.638Z,26.35
2022-11-05T12:28:34.004Z,26.24
2022-11-05T12:29:35.972Z,26.21
2022-11-05T12:30:33.166Z,26.23
2022-11-05T12:31:33.309Z,26.21
2022-11-05T12:32:33.579Z,26.23
2022-11-05T12:33:33.687Z,26.27
2022-11-05T12:34:33.844Z,26.27
2022-11-05T12:35:34.050Z,26.32
2022-11-05T12:36:34.220Z,26.33
2022-11-05T12:37:34.411Z,26.38
2022-11-05T12:38:34.572Z,26.38
2022-11-05T12:39:34.761Z,26.40
2022-11-05T12:40:34.962Z,26.45
2022-11-05T12:41:35.112Z,26.46
2022-11-05T12:42:35.294Z,26.48
2022-11-05T12:43:35.464Z,26.51
2022-11-05T12:44:35.623Z,26.57
2022-11-05T12:45:35.800Z,26.61
2022-11-05T12:46:35.944Z,26.65
2022-11-05T12:47:36.135Z,26.65
2022-11-05T12:48:37.438Z,26.73
2022-11-05T12:49:36.483Z,26.76
2022-11-05T12:50:36.649Z,26.82
2022-11-05T12:51:36.812Z,26.83
2022-11-05T12:52:36.956Z,26.91
2022-11-05T12:53:37.157Z,26.92
2022-11-05T12:54:37.348Z,26.95